createdAt,value
2023-05-14T00:00:50.033Z,0.00
2023-05-14T00:01:50.052Z,0.00
2023-05-14T00:02:49.942Z,0.00
2023-05-14T00:03:49.841Z,0.00
2023-05-14T00:04:49.709Z,0.00
2023-05-14T00:05:49.630Z,0.00
2023-05-14T00:06:49.555Z,0.00
2023-05-14T00:07:49.461Z,0.00
2023-05-14T00:08:49.412Z,0.00
2023-05-14T00:09:49.309Z,0.00
2023-05-14T00:10:49.226Z,0.00
2023-05-14T00:11:49.136Z,0.00
2023-05-14T00:12:49.053Z,0.00
2023-05-14T00:13:48.977Z,0.00
2023-05-14T00:14:48.920Z,0.00
2023-05-14T00:15:48.867Z,0.00
2023-05-14T00:16:48.738Z,0.00
2023-05-14T00:17:48.683Z,0.00
2023-05-14T00:18:48.593Z,0.00
2023-05-14T00:19:48.497Z,0.00
2023-05-14T00:20:48.411Z,0.00
2023-05-14T00:21:48.325Z,0.00
2023-05-14T00:22:48.249Z,0.00
2023-05-14T00:23:48.168Z,0.00
2023-05-14T00:24:48.087Z,0.00
2023-05-14T00:25:48.013Z,0.00
2023-05-14T00:26:47.924Z,0.00
2023-05-14T00:27:47.860Z,0.00
2023-05-14T00:28:47.764Z,0.00
2023-05-14T00:29:47.687Z,0.00
2023-05-14T00:30:47.599Z,0.00
2023-05-14T00:31:47.563Z,0.00
2023-05-14T00:32:47.547Z,0.00
2023-05-14T00:33:47.379Z,0.00
2023-05-14T00:34:47.282Z,0.00
2023-05-14T00:35:47.214Z,0.00
2023-05-14T00:36:47.144Z,0.00
2023-05-14T00:37:47.039Z,0.00
2023-05-14T00:38:46.971Z,0.00
2023-05-14T00:39:46.877Z,0.00
2023-05-14T00:40:46.799Z,0.00
2023-05-14T00:41:46.734Z,0.00
2023-05-14T00:42:46.639Z,0.00
2023-05-14T00:43:46.555Z,0.00
2023-05-14T00:44:46.484Z,0.00
2023-05-14T00:45:46.391Z,0.00
2023-05-14T00:46:46.382Z,0.00
2023-05-14T00:47:46.264Z,0.00
2023-05-14T00:48:46.169Z,0.00
2023-05-14T00:49:46.078Z,0.00
2023-05-14T00:50:45.990Z,0.00
2023-05-14T00:51:45.906Z,0.00
2023-05-14T00:52:45.838Z,0.00
2023-05-14T00:53:45.758Z,0.00
2023-05-14T00:54:45.668Z,0.00
2023-05-14T00:55:45.588Z,0.00
2023-05-14T00:56:45.503Z,0.00
2023-05-14T00:57:45.430Z,0.00
2023-05-14T00:58:45.343Z,0.00
2023-05-14T00:59:45.266Z,0.00
2023-05-14T01:00:45.205Z,0.00
2023-05-14T01:01:45.106Z,0.00
2023-05-14T01:02:45.145Z,0.00
2023-05-14T01:03:45.045Z,0.00
2023-05-14T01:04:44.892Z,0.00
2023-05-14T01:05:44.780Z,0.00
2023-05-14T01:06:44.710Z,0.00
2023-05-14T01:07:44.610Z,0.00
2023-05-14T01:08:44.535Z,0.00
2023-05-14T01:09:44.460Z,0.00
2023-05-14T01:10:44.370Z,0.00
2023-05-14T01:11:44.299Z,0.00
2023-05-14T01:12:44.210Z,0.00
2023-05-14T01:13:44.133Z,0.00
2023-05-14T01:14:44.044Z,0.00
2023-05-14T01:15:43.976Z,0.00
2023-05-14T01:16:43.934Z,0.00
2023-05-14T01:17:43.827Z,0.00
2023-05-14T01:18:43.751Z,0.00
2023-05-14T01:19:43.649Z,0.00
2023-05-14T01:20:43.569Z,0.00
2023-05-14T01:21:43.495Z,0.00
2023-05-14T01:22:43.416Z,0.00
2023-05-14T01:23:43.327Z,0.00
2023-05-14T01:24:43.242Z,0.00
2023-05-14T01:25:43.162Z,0.00
2023-05-14T01:26:43.080Z,0.00
2023-05-14T01:27:43.006Z,0.00
2023-05-14T01:28:42.919Z,0.00
2023-05-14T01:29:42.841Z,0.00
2023-05-14T01:30:42.760Z,0.00
2023-05-14T01:31:42.692Z,0.00
2023-05-14T01:32:42.663Z,0.00
2023-05-14T01:33:42.531Z,0.00
2023-05-14T01:34:42.434Z,0.00
2023-05-14T01:35:42.368Z,0.00
2023-05-14T01:36:42.282Z,0.00
2023-05-14T01:37:42.192Z,0.00
2023-05-14T01:38:42.108Z,0.00
2023-05-14T01:39:42.041Z,0.00
2023-05-14T01:40:41.962Z,0.00
2023-05-14T01:41:41.871Z,0.00
2023-05-14T01:42:41.837Z,0.00
2023-05-14T01:43:41.698Z,0.00
2023-05-14T01:44:41.623Z,0.00
2023-05-14T01:45:41.578Z,0.00
2023-05-14T01:46:41.561Z,0.00
2023-05-14T01:47:41.405Z,0.00
2023-05-14T01:48:41.309Z,0.00
2023-05-14T01:49:41.242Z,0.00
2023-05-14T01:50:41.136Z,0.00
2023-05-14T01:51:41.062Z,0.00
2023-05-14T01:52:40.981Z,0.00
2023-05-14T01:53:40.910Z,0.00
2023-05-14T01:54:40.814Z,0.00
2023-05-14T01:55:40.734Z,0.00
2023-05-14T01:56:40.650Z,0.00
2023-05-14T01:57:40.569Z,0.00
2023-05-14T01:58:40.497Z,0.00
2023-05-14T01:59:40.410Z,0.00
2023-05-14T02:00:40.329Z,0.00
2023-05-14T02:01:40.383Z,0.00
2023-05-14T02:02:40.205Z,0.00
2023-05-14T02:03:40.134Z,0.00
2023-05-14T02:04:40.008Z,0.00
2023-05-14T02:05:39.955Z,0.00
2023-05-14T02:06:39.842Z,0.00
2023-05-14T02:07:39.767Z,0.00
2023-05-14T02:08:39.705Z,0.00
2023-05-14T02:09:39.604Z,0.00
2023-05-14T02:10:39.522Z,0.00
2023-05-14T02:11:39.442Z,0.00
2023-05-14T02:12:39.358Z,0.00
2023-05-14T02:13:39.286Z,0.00
2023-05-14T02:14:39.224Z,0.00
2023-05-14T02:15:39.144Z,0.00
2023-05-14T02:16:39.039Z,0.00
2023-05-14T02:17:38.993Z,0.00
2023-05-14T02:18:38.956Z,0.00
2023-05-14T02:19:38.809Z,0.00
2023-05-14T02:20:38.722Z,0.00
2023-05-14T02:21:38.639Z,0.00
2023-05-14T02:22:38.553Z,0.00
2023-05-14T02:23:41.836Z,0.00
2023-05-14T02:24:38.396Z,0.00
2023-05-14T02:25:38.308Z,0.00
2023-05-14T02:26:38.234Z,0.00
2023-05-14T02:27:38.156Z,0.00
2023-05-14T02:28:38.092Z,0.00
2023-05-14T02:29:38.005Z,0.00
2023-05-14T02:30:37.908Z,0.00
2023-05-14T02:31:37.881Z,0.00
2023-05-14T02:32:37.831Z,0.00
2023-05-14T02:33:37.742Z,0.00
2023-05-14T02:34:37.585Z,0.00
2023-05-14T02:35:37.502Z,0.00
2023-05-14T02:36:37.421Z,0.00
2023-05-14T02:37:37.354Z,0.00
2023-05-14T02:38:37.265Z,0.00
2023-05-14T02:39:37.181Z,0.00
2023-05-14T02:40:37.112Z,0.00
2023-05-14T02:41:37.020Z,0.00
2023-05-14T02:42:36.943Z,0.00
2023-05-14T02:43:36.862Z,0.00
2023-05-14T02:44:36.793Z,0.00
2023-05-14T02:45:36.722Z,0.00
2023-05-14T02:46:36.633Z,0.00
2023-05-14T02:47:38.204Z,0.00
2023-05-14T02:48:36.451Z,0.00
2023-05-14T02:49:36.390Z,0.00
2023-05-14T02:50:36.297Z,0.00
2023-05-14T02:51:36.218Z,0.00
2023-05-14T02:52:36.141Z,0.00
2023-05-14T02:53:36.052Z,0.00
2023-05-14T02:54:35.972Z,0.00
2023-05-14T02:55:35.890Z,0.00
2023-05-14T02:56:35.875Z,0.00
2023-05-14T02:57:35.734Z,0.00
2023-05-14T02:58:35.666Z,0.00
2023-05-14T02:59:35.567Z,0.00
2023-05-14T03:00:35.523Z,0.00
2023-05-14T03:01:35.412Z,0.00
2023-05-14T03:02:35.387Z,4.00
2023-05-14T03:03:35.247Z,4.00
2023-05-14T03:04:35.166Z,0.00
2023-05-14T03:05:35.081Z,4.00
2023-05-14T03:06:35.016Z,4.00
2023-05-14T03:07:34.918Z,4.00
2023-05-14T03:08:34.849Z,4.00
2023-05-14T03:09:36.741Z,8.00
2023-05-14T03:10:34.680Z,8.00
2023-05-14T03:11:34.608Z,8.00
2023-05-14T03:12:34.549Z,12.00
2023-05-14T03:13:34.440Z,12.00
2023-05-14T03:14:34.356Z,16.00
2023-05-14T03:15:34.293Z,16.00
2023-05-14T03:16:34.201Z,20.00
2023-05-14T03:17:34.124Z,20.00
2023-05-14T03:18:34.033Z,24.00
2023-05-14T03:19:33.947Z,28.00
2023-05-14T03:20:33.878Z,28.00
2023-05-14T03:21:33.796Z,36.00
2023-05-14T03:22:33.714Z,40.00
2023-05-14T03:23:33.641Z,48.00
2023-05-14T03:24:33.544Z,56.00
2023-05-14T03:25:33.461Z,60.00
2023-05-14T03:26:33.378Z,68.00
2023-05-14T03:27:33.317Z,76.00
2023-05-14T03:28:33.222Z,84.00
2023-05-14T03:29:33.147Z,92.00
2023-05-14T03:30:33.095Z,100.00
2023-05-14T03:31:32.968Z,112.00
2023-05-14T03:32:32.951Z,124.00
2023-05-14T03:33:32.812Z,140.00
2023-05-14T03:34:32.736Z,152.00
2023-05-14T03:35:32.666Z,164.00
2023-05-14T03:36:32.579Z,180.00
2023-05-14T03:37:32.481Z,192.00
2023-05-14T03:38:32.402Z,212.00
2023-05-14T03:39:32.321Z,228.00
2023-05-14T03:40:32.238Z,244.00
2023-05-14T03:41:32.160Z,264.00
2023-05-14T03:42:32.093Z,284.00
2023-05-14T03:43:31.997Z,300.00
2023-05-14T03:44:31.938Z,320.00
2023-05-14T03:45:31.837Z,340.00
2023-05-14T03:46:31.751Z,364.00
2023-05-14T03:47:31.710Z,384.00
2023-05-14T03:48:31.618Z,408.00
2023-05-14T03:49:31.543Z,432.00
2023-05-14T03:50:31.436Z,456.00
2023-05-14T03:51:31.353Z,480.00
2023-05-14T03:52:31.267Z,504.00
2023-05-14T03:53:31.186Z,532.00
2023-05-14T03:54:31.108Z,560.00
2023-05-14T03:55:31.021Z,588.00
2023-05-14T03:56:30.939Z,616.00
2023-05-14T03:57:30.860Z,640.00
2023-05-14T03:58:30.778Z,664.00
2023-05-14T03:59:30.694Z,692.00
2023-05-14T04:00:30.696Z,716.00
2023-05-14T04:01:30.536Z,740.00
2023-05-14T04:02:30.545Z,768.00
2023-05-14T04:03:30.503Z,796.00
2023-05-14T04:04:30.323Z,824.00
2023-05-14T04:05:30.208Z,848.00
2023-05-14T04:06:30.133Z,876.00
2023-05-14T04:07:30.063Z,900.00
2023-05-14T04:08:29.966Z,932.00
2023-05-14T04:09:29.883Z,956.00
2023-05-14T04:10:29.815Z,980.00
2023-05-14T04:11:29.744Z,1012.00
2023-05-14T04:12:29.645Z,1040.00
2023-05-14T04:13:29.563Z,1064.00
2023-05-14T04:14:29.482Z,1088.00
2023-05-14T04:15:29.409Z,1116.00
2023-05-14T04:16:29.345Z,1140.00
2023-05-14T04:17:29.250Z,1164.00
2023-05-14T04:18:29.177Z,1188.00
2023-05-14T04:19:29.095Z,1212.00
2023-05-14T04:20:28.999Z,1236.00
2023-05-14T04:21:28.907Z,1260.00
2023-05-14T04:22:28.834Z,1288.00
2023-05-14T04:23:28.744Z,1316.00
2023-05-14T04:24:28.662Z,1336.00
2023-05-14T04:25:28.576Z,1364.00
2023-05-14T04:26:28.521Z,1388.00
2023-05-14T04:27:28.444Z,1412.00
2023-05-14T04:28:28.337Z,1436.00
2023-05-14T04:29:28.260Z,1456.00
2023-05-14T04:30:28.177Z,1480.00
2023-05-14T04:31:28.105Z,1504.00
2023-05-14T04:32:28.026Z,1524.00
2023-05-14T04:33:27.936Z,1548.00
2023-05-14T04:34:27.847Z,1564.00
2023-05-14T04:35:27.768Z,1584.00
2023-05-14T04:36:27.692Z,1612.00
2023-05-14T04:37:27.603Z,1632.00
2023-05-14T04:38:27.523Z,1644.00
2023-05-14T04:39:27.440Z,1664.00
2023-05-14T04:40:27.491Z,1680.00
2023-05-14T04:41:27.287Z,1700.00
2023-05-14T04:42:27.205Z,1720.00
2023-05-14T04:43:27.116Z,1740.00
2023-05-14T04:44:27.037Z,1756.00
2023-05-14T04:45:26.961Z,1776.00
2023-05-14T04:46:26.893Z,1792.00
2023-05-14T04:47:26.845Z,1808.00
2023-05-14T04:48:26.720Z,1828.00
2023-05-14T04:49:26.633Z,1848.00
2023-05-14T04:50:26.542Z,1864.00
2023-05-14T04:51:26.471Z,1884.00
2023-05-14T04:52:26.384Z,1900.00
2023-05-14T04:53:26.305Z,1916.00
2023-05-14T04:54:26.243Z,1932.00
2023-05-14T04:55:26.151Z,1944.00
2023-05-14T04:56:26.072Z,1956.00
2023-05-14T04:57:25.984Z,1972.00
2023-05-14T04:58:25.898Z,1988.00
2023-05-14T04:59:25.815Z,2000.00
2023-05-14T05:00:26.046Z,2016.00
2023-05-14T05:01:25.676Z,2028.00
2023-05-14T05:02:25.599Z,2040.00
2023-05-14T05:03:25.628Z,2056.00
2023-05-14T05:04:25.419Z,2068.00
2023-05-14T05:05:25.341Z,2076.00
2023-05-14T05:06:25.256Z,2088.00
2023-05-14T05:07:25.178Z,2104.00
2023-05-14T05:08:25.092Z,2120.00
2023-05-14T05:09:25.014Z,2140.00
2023-05-14T05:10:25.295Z,2152.00
2023-05-14T05:11:24.848Z,2164.00
2023-05-14T05:12:24.775Z,2172.00
2023-05-14T05:13:24.689Z,2192.00
2023-05-14T05:14:24.610Z,2208.00
2023-05-14T05:15:26.611Z,2220.00
2023-05-14T05:16:24.487Z,2244.00
2023-05-14T05:17:24.407Z,2356.00
2023-05-14T05:18:24.334Z,2272.00
2023-05-14T05:19:35.589Z,2280.00
2023-05-14T05:20:24.346Z,2288.00
2023-05-14T05:21:24.038Z,2296.00
2023-05-14T05:22:23.981Z,2300.00
2023-05-14T05:23:23.882Z,2308.00
2023-05-14T05:24:23.801Z,2316.00
2023-05-14T05:25:23.718Z,2324.00
2023-05-14T05:26:23.655Z,2340.00
2023-05-14T05:27:23.558Z,2348.00
2023-05-14T05:28:23.482Z,2360.00
2023-05-14T05:29:23.401Z,2284.00
2023-05-14T05:30:23.548Z,2364.00
2023-05-14T05:31:23.264Z,2388.00
2023-05-14T05:32:23.192Z,2396.00
2023-05-14T05:33:23.072Z,2404.00
2023-05-14T05:34:23.001Z,2420.00
2023-05-14T05:35:22.916Z,2424.00
2023-05-14T05:36:22.858Z,2432.00
2023-05-14T05:37:22.748Z,2444.00
2023-05-14T05:38:22.669Z,2452.00
2023-05-14T05:39:22.637Z,2460.00
2023-05-14T05:40:22.593Z,2464.00
2023-05-14T05:41:22.434Z,2472.00
2023-05-14T05:42:22.368Z,2480.00
2023-05-14T05:43:22.261Z,2496.00
2023-05-14T05:44:22.198Z,2508.00
2023-05-14T05:45:22.135Z,2524.00
2023-05-14T05:46:22.025Z,2536.00
2023-05-14T05:47:21.958Z,2552.00
2023-05-14T05:48:21.866Z,2564.00
2023-05-14T05:49:21.780Z,2580.00
2023-05-14T05:50:21.888Z,2600.00
2023-05-14T05:51:21.624Z,2616.00
2023-05-14T05:52:21.564Z,2644.00
2023-05-14T05:53:21.470Z,2672.00
2023-05-14T05:54:21.382Z,2700.00
2023-05-14T05:55:21.298Z,2724.00
2023-05-14T05:56:21.207Z,2740.00
2023-05-14T05:57:21.136Z,2768.00
2023-05-14T05:58:21.069Z,2780.00
2023-05-14T05:59:20.982Z,2796.00
2023-05-14T06:00:20.987Z,2828.00
2023-05-14T06:01:20.823Z,2868.00
2023-05-14T06:02:20.788Z,2896.00
2023-05-14T06:03:20.683Z,2924.00
2023-05-14T06:04:20.572Z,2940.00
2023-05-14T06:05:20.554Z,2952.00
2023-05-14T06:06:20.416Z,2960.00
2023-05-14T06:07:20.337Z,2964.00
2023-05-14T06:08:20.255Z,2964.00
2023-05-14T06:09:20.173Z,2968.00
2023-05-14T06:10:20.093Z,2956.00
2023-05-14T06:11:20.017Z,2964.00
2023-05-14T06:12:19.940Z,2968.00
2023-05-14T06:13:19.862Z,2964.00
2023-05-14T06:14:19.780Z,2964.00
2023-05-14T06:15:19.691Z,2972.00
2023-05-14T06:16:19.660Z,2984.00
2023-05-14T06:17:19.575Z,3008.00
2023-05-14T06:18:19.465Z,3016.00
2023-05-14T06:19:19.449Z,3024.00
2023-05-14T06:20:19.305Z,3032.00
2023-05-14T06:21:19.211Z,3032.00
2023-05-14T06:22:19.130Z,3020.00
2023-05-14T06:23:19.056Z,3080.00
2023-05-14T06:24:18.975Z,3140.00
2023-05-14T06:25:18.892Z,3264.00
2023-05-14T06:26:18.821Z,3472.00
2023-05-14T06:27:18.730Z,3688.00
2023-05-14T06:28:18.654Z,3908.00
2023-05-14T06:29:18.577Z,3976.00
2023-05-14T06:30:18.485Z,3884.00
2023-05-14T06:31:18.439Z,3828.00
2023-05-14T06:32:18.441Z,3292.00
2023-05-14T06:33:20.035Z,3296.00
2023-05-14T06:34:18.182Z,3268.00
2023-05-14T06:35:18.087Z,3432.00
2023-05-14T06:36:18.022Z,3608.00
2023-05-14T06:37:17.939Z,3672.00
2023-05-14T06:38:17.864Z,3764.00
2023-05-14T06:39:17.792Z,3976.00
2023-05-14T06:40:17.698Z,4184.00
2023-05-14T06:41:17.621Z,4320.00
2023-05-14T06:42:17.533Z,4448.00
2023-05-14T06:43:17.455Z,4548.00
2023-05-14T06:44:17.374Z,4712.00
2023-05-14T06:45:17.310Z,4824.00
2023-05-14T06:46:17.262Z,4916.00
2023-05-14T06:47:17.142Z,4944.00
2023-05-14T06:48:17.147Z,4940.00
2023-05-14T06:49:17.146Z,5264.00
2023-05-14T06:50:16.968Z,5184.00
2023-05-14T06:51:16.822Z,5188.00
2023-05-14T06:52:16.749Z,5228.00
2023-05-14T06:53:16.665Z,5332.00
2023-05-14T06:54:16.581Z,5308.00
2023-05-14T06:55:16.545Z,5220.00
2023-05-14T06:56:16.420Z,5244.00
2023-05-14T06:57:16.344Z,5320.00
2023-05-14T06:58:16.269Z,5500.00
2023-05-14T06:59:16.227Z,5560.00
2023-05-14T07:00:16.116Z,5532.00
2023-05-14T07:01:16.037Z,5536.00
2023-05-14T07:02:15.954Z,5636.00
2023-05-14T07:03:15.897Z,5900.00
2023-05-14T07:04:15.822Z,5816.00
2023-05-14T07:05:15.716Z,5900.00
2023-05-14T07:06:15.634Z,5956.00
2023-05-14T07:07:15.588Z,5980.00
2023-05-14T07:08:15.472Z,6072.00
2023-05-14T07:09:15.403Z,6552.00
2023-05-14T07:10:15.320Z,6228.00
2023-05-14T07:11:15.245Z,6416.00
2023-05-14T07:12:15.167Z,6204.00
2023-05-14T07:13:15.086Z,5864.00
2023-05-14T07:14:15.005Z,5932.00
2023-05-14T07:15:14.926Z,5860.00
2023-05-14T07:16:14.856Z,5872.00
2023-05-14T07:17:14.796Z,5712.00
2023-05-14T07:18:14.741Z,5484.00
2023-05-14T07:19:14.648Z,5356.00
2023-05-14T07:20:14.562Z,5288.00
2023-05-14T07:21:14.454Z,5476.00
2023-05-14T07:22:14.378Z,5672.00
2023-05-14T07:23:14.310Z,5796.00
2023-05-14T07:24:14.221Z,6016.00
2023-05-14T07:25:14.146Z,5796.00
2023-05-14T07:26:14.067Z,5312.00
2023-05-14T07:27:13.992Z,5008.00
2023-05-14T07:28:13.911Z,4604.00
2023-05-14T07:29:13.841Z,4472.00
2023-05-14T07:30:13.761Z,4544.00
2023-05-14T07:31:13.693Z,4612.00
2023-05-14T07:32:15.616Z,4968.00
2023-05-14T07:33:13.511Z,5724.00
2023-05-14T07:34:13.445Z,6304.00
2023-05-14T07:35:13.370Z,6516.00
2023-05-14T07:36:13.279Z,6472.00
2023-05-14T07:37:13.208Z,6824.00
2023-05-14T07:38:13.122Z,6988.00
2023-05-14T07:39:13.068Z,6872.00
2023-05-14T07:40:12.974Z,6584.00
2023-05-14T07:41:12.896Z,6264.00
2023-05-14T07:42:21.882Z,6552.00
2023-05-14T07:43:12.734Z,6736.00
2023-05-14T07:44:12.668Z,6776.00
2023-05-14T07:45:12.578Z,6424.00
2023-05-14T07:46:12.523Z,5960.00
2023-05-14T07:47:12.453Z,6072.00
2023-05-14T07:48:12.652Z,5976.00
2023-05-14T07:49:12.265Z,6240.00
2023-05-14T07:50:12.191Z,6588.00
2023-05-14T07:51:12.106Z,7168.00
2023-05-14T07:52:12.039Z,7196.00
2023-05-14T07:53:11.963Z,7152.00
2023-05-14T07:54:11.884Z,7376.00
2023-05-14T07:55:11.804Z,7744.00
2023-05-14T07:56:11.723Z,7564.00
2023-05-14T07:57:11.647Z,7564.00
2023-05-14T07:58:11.590Z,7472.00
2023-05-14T07:59:11.489Z,7640.00
2023-05-14T08:00:11.416Z,7428.00
2023-05-14T08:01:11.343Z,7240.00
2023-05-14T08:02:11.286Z,7180.00
2023-05-14T08:03:11.243Z,7204.00
2023-05-14T08:04:11.177Z,7220.00
2023-05-14T08:05:11.024Z,6948.00
2023-05-14T08:06:10.945Z,6352.00
2023-05-14T08:07:10.874Z,5708.00
2023-05-14T08:08:10.799Z,5520.00
2023-05-14T08:09:10.714Z,5128.00
2023-05-14T08:10:10.639Z,5032.00
2023-05-14T08:11:10.633Z,5104.00
2023-05-14T08:12:10.485Z,4876.00
2023-05-14T08:13:10.409Z,4880.00
2023-05-14T08:14:10.325Z,5168.00
2023-05-14T08:15:10.271Z,4888.00
2023-05-14T08:16:10.180Z,3992.00
2023-05-14T08:17:10.175Z,3636.00
2023-05-14T08:18:10.076Z,4048.00
2023-05-14T08:19:10.008Z,4012.00
2023-05-14T08:20:09.880Z,4124.00
2023-05-14T08:21:09.800Z,4472.00
2023-05-14T08:22:09.705Z,4828.00
2023-05-14T08:23:09.628Z,5152.00
2023-05-14T08:24:09.553Z,5332.00
2023-05-14T08:25:09.476Z,4828.00
2023-05-14T08:26:09.400Z,4488.00
2023-05-14T08:27:09.321Z,4248.00
2023-05-14T08:28:09.258Z,4076.00
2023-05-14T08:29:10.626Z,4188.00
2023-05-14T08:30:09.095Z,4448.00
2023-05-14T08:31:09.035Z,5124.00
2023-05-14T08:32:22.081Z,5716.00
2023-05-14T08:33:08.965Z,5892.00
2023-05-14T08:34:08.777Z,5776.00
2023-05-14T08:35:08.692Z,5996.00
2023-05-14T08:36:08.625Z,5856.00
2023-05-14T08:37:08.535Z,6344.00
2023-05-14T08:38:08.462Z,7876.00
2023-05-14T08:39:08.393Z,7368.00
2023-05-14T08:40:08.314Z,8020.00
2023-05-14T08:41:08.228Z,7556.00
2023-05-14T08:42:08.171Z,7008.00
2023-05-14T08:43:08.098Z,5240.00
2023-05-14T08:44:07.997Z,4048.00
2023-05-14T08:45:07.916Z,3516.00
2023-05-14T08:46:07.838Z,4340.00
2023-05-14T08:47:07.761Z,3924.00
2023-05-14T08:48:07.725Z,3876.00
2023-05-14T08:49:07.628Z,4264.00
2023-05-14T08:50:07.550Z,4952.00
2023-05-14T08:51:07.464Z,6368.00
2023-05-14T08:52:07.375Z,6364.00
2023-05-14T08:53:07.298Z,6384.00
2023-05-14T08:54:07.213Z,5700.00
2023-05-14T08:55:07.140Z,5652.00
2023-05-14T08:56:07.064Z,5856.00
2023-05-14T08:57:07.004Z,5632.00
2023-05-14T08:58:06.914Z,5560.00
2023-05-14T08:59:06.833Z,5396.00
2023-05-14T09:00:06.746Z,5328.00
2023-05-14T09:01:06.675Z,5124.00
2023-05-14T09:02:06.943Z,4432.00
2023-05-14T09:03:06.621Z,4268.00
2023-05-14T09:04:06.458Z,4196.00
2023-05-14T09:05:06.363Z,4452.00
2023-05-14T09:06:06.284Z,4708.00
2023-05-14T09:07:06.214Z,4896.00
2023-05-14T09:08:06.155Z,4560.00
2023-05-14T09:09:06.055Z,4492.00
2023-05-14T09:10:05.981Z,4076.00
2023-05-14T09:11:05.886Z,3896.00
2023-05-14T09:12:05.823Z,3896.00
2023-05-14T09:13:05.768Z,4068.00
2023-05-14T09:14:05.666Z,3516.00
2023-05-14T09:15:05.582Z,3572.00
2023-05-14T09:16:05.541Z,3652.00
2023-05-14T09:17:05.432Z,4556.00
2023-05-14T09:18:05.371Z,5952.00
2023-05-14T09:19:05.320Z,7100.00
2023-05-14T09:20:05.199Z,7620.00
2023-05-14T09:21:05.128Z,7872.00
2023-05-14T09:22:05.041Z,7720.00
2023-05-14T09:23:04.961Z,7904.00
2023-05-14T09:24:04.890Z,8788.00
2023-05-14T09:25:04.825Z,8740.00
2023-05-14T09:26:04.735Z,9036.00
2023-05-14T09:27:04.659Z,7892.00
2023-05-14T09:28:04.577Z,7208.00
2023-05-14T09:29:04.507Z,6444.00
2023-05-14T09:30:04.431Z,5860.00
2023-05-14T09:31:04.365Z,5404.00
2023-05-14T09:32:04.372Z,5056.00
2023-05-14T09:33:04.284Z,4852.00
2023-05-14T09:34:04.114Z,4808.00
2023-05-14T09:35:04.040Z,4812.00
2023-05-14T09:36:03.962Z,4812.00
2023-05-14T09:37:03.894Z,4896.00
2023-05-14T09:38:03.803Z,4928.00
2023-05-14T09:39:03.731Z,4996.00
2023-05-14T09:40:03.649Z,5068.00
2023-05-14T09:41:03.575Z,4580.00
2023-05-14T09:42:03.522Z,4948.00
2023-05-14T09:43:03.419Z,4988.00
2023-05-14T09:44:04.737Z,5028.00
2023-05-14T09:45:03.264Z,5016.00
2023-05-14T09:46:03.197Z,4920.00
2023-05-14T09:47:03.251Z,4320.00
2023-05-14T09:48:03.341Z,4288.00
2023-05-14T09:49:02.955Z,4544.00
2023-05-14T09:50:02.880Z,4816.00
2023-05-14T09:51:04.071Z,5844.00
2023-05-14T09:52:02.733Z,6192.00
2023-05-14T09:53:02.653Z,6168.00
2023-05-14T09:54:02.570Z,5548.00
2023-05-14T09:55:02.501Z,4856.00
2023-05-14T09:56:02.424Z,5340.00
2023-05-14T09:57:02.337Z,5376.00
2023-05-14T09:58:02.270Z,6536.00
2023-05-14T09:59:02.182Z,7380.00
2023-05-14T10:00:02.129Z,8152.00
2023-05-14T10:01:02.054Z,9580.00
2023-05-14T10:02:01.982Z,9456.00
2023-05-14T10:03:01.957Z,8220.00
2023-05-14T10:04:01.842Z,8212.00
2023-05-14T10:05:01.715Z,8508.00
2023-05-14T10:06:01.653Z,8548.00
2023-05-14T10:07:01.564Z,8852.00
2023-05-14T10:08:01.553Z,9172.00
2023-05-14T10:09:01.417Z,9468.00
2023-05-14T10:10:01.342Z,8520.00
2023-05-14T10:11:01.260Z,8664.00
2023-05-14T10:12:01.237Z,9668.00
2023-05-14T10:13:01.100Z,9812.00
2023-05-14T10:14:01.040Z,8740.00
2023-05-14T10:15:00.950Z,8204.00
2023-05-14T10:16:00.874Z,8580.00
2023-05-14T10:17:00.820Z,8460.00
2023-05-14T10:18:00.759Z,8880.00
2023-05-14T10:19:00.697Z,8436.00
2023-05-14T10:20:00.591Z,8056.00
2023-05-14T10:21:00.495Z,7484.00
2023-05-14T10:22:00.411Z,7064.00
2023-05-14T10:23:00.363Z,6544.00
2023-05-14T10:24:00.259Z,6120.00
2023-05-14T10:25:00.242Z,5836.00
2023-05-14T10:26:00.136Z,5468.00
2023-05-14T10:27:00.031Z,5108.00
2023-05-14T10:27:59.962Z,4900.00
2023-05-14T10:28:59.882Z,4720.00
2023-05-14T10:29:59.812Z,4584.00
2023-05-14T10:30:59.787Z,5396.00
2023-05-14T10:31:59.650Z,5092.00
2023-05-14T10:32:59.605Z,6352.00
2023-05-14T10:33:59.919Z,7720.00
2023-05-14T10:34:59.418Z,8432.00
2023-05-14T10:35:59.343Z,8080.00
2023-05-14T10:36:59.281Z,7116.00
2023-05-14T10:37:59.180Z,6116.00
2023-05-14T10:38:59.118Z,5492.00
2023-05-14T10:39:59.031Z,5008.00
2023-05-14T10:40:59.005Z,4812.00
2023-05-14T10:41:58.881Z,4804.00
2023-05-14T10:42:58.799Z,4884.00
2023-05-14T10:43:58.723Z,4904.00
2023-05-14T10:44:58.797Z,4884.00
2023-05-14T10:45:58.576Z,4860.00
2023-05-14T10:46:58.620Z,4908.00
2023-05-14T10:47:58.474Z,5108.00
2023-05-14T10:48:58.341Z,5332.00
2023-05-14T10:49:58.259Z,5524.00
2023-05-14T10:50:58.234Z,5896.00
2023-05-14T10:51:58.103Z,6992.00
2023-05-14T10:52:58.035Z,7740.00
2023-05-14T10:53:57.955Z,9512.00
2023-05-14T10:54:58.480Z,10984.00
2023-05-14T10:55:57.806Z,11072.00
2023-05-14T10:56:57.727Z,12088.00
2023-05-14T10:57:57.648Z,11744.00
2023-05-14T10:58:57.582Z,12172.00
2023-05-14T10:59:57.505Z,12240.00
2023-05-14T11:00:57.421Z,11992.00
2023-05-14T11:01:57.379Z,11176.00
2023-05-14T11:02:57.310Z,10316.00
2023-05-14T11:03:57.239Z,9888.00
2023-05-14T11:04:57.117Z,9488.00
2023-05-14T11:05:57.043Z,8796.00
2023-05-14T11:06:56.965Z,7728.00
2023-05-14T11:07:56.886Z,6912.00
2023-05-14T11:08:56.813Z,6340.00
2023-05-14T11:09:56.737Z,5860.00
2023-05-14T11:10:56.651Z,5468.00
2023-05-14T11:11:56.598Z,5204.00
2023-05-14T11:12:56.509Z,5016.00
2023-05-14T11:13:56.433Z,4860.00
2023-05-14T11:14:56.354Z,4688.00
2023-05-14T11:15:56.287Z,4512.00
2023-05-14T11:16:56.297Z,4428.00
2023-05-14T11:17:56.173Z,4396.00
2023-05-14T11:18:56.091Z,4476.00
2023-05-14T11:19:55.982Z,4616.00
2023-05-14T11:20:55.893Z,4772.00
2023-05-14T11:21:55.821Z,4932.00
2023-05-14T11:22:55.742Z,5028.00
2023-05-14T11:23:55.689Z,5140.00
2023-05-14T11:24:55.605Z,5336.00
2023-05-14T11:25:55.627Z,5672.00
2023-05-14T11:26:55.460Z,6272.00
2023-05-14T11:27:55.367Z,6988.00
2023-05-14T11:28:55.283Z,7576.00
2023-05-14T11:29:55.219Z,7972.00
2023-05-14T11:30:55.134Z,8304.00
2023-05-14T11:31:55.092Z,8884.00
2023-05-14T11:32:55.004Z,9388.00
2023-05-14T11:33:54.936Z,9768.00
2023-05-14T11:34:54.839Z,10072.00
2023-05-14T11:35:54.754Z,10164.00
2023-05-14T11:36:54.677Z,10228.00
2023-05-14T11:37:54.608Z,10364.00
2023-05-14T11:38:54.526Z,10696.00
2023-05-14T11:39:54.454Z,11472.00
2023-05-14T11:40:54.396Z,12756.00
2023-05-14T11:41:54.300Z,12704.00
2023-05-14T11:42:54.223Z,13472.00
2023-05-14T11:43:54.191Z,14320.00
2023-05-14T11:44:54.138Z,15264.00
2023-05-14T11:45:54.032Z,17632.00
2023-05-14T11:46:53.928Z,17952.00
2023-05-14T11:47:53.921Z,17024.00
2023-05-14T11:48:53.762Z,15640.00
2023-05-14T11:49:53.717Z,15116.00
2023-05-14T11:50:53.613Z,15216.00
2023-05-14T11:51:53.542Z,15280.00
2023-05-14T11:52:53.476Z,15520.00
2023-05-14T11:53:53.388Z,15604.00
2023-05-14T11:54:53.319Z,15156.00
2023-05-14T11:55:53.238Z,14600.00
2023-05-14T11:56:53.176Z,14324.00
2023-05-14T11:57:53.094Z,13880.00
2023-05-14T11:58:53.012Z,13864.00
2023-05-14T11:59:52.974Z,13980.00
2023-05-14T12:00:52.868Z,14340.00
2023-05-14T12:01:52.802Z,14492.00
2023-05-14T12:02:52.886Z,14980.00
2023-05-14T12:03:52.712Z,15176.00
2023-05-14T12:04:52.689Z,15316.00
2023-05-14T12:05:52.495Z,15584.00
2023-05-14T12:06:52.425Z,15452.00
2023-05-14T12:07:52.340Z,15020.00
2023-05-14T12:08:52.268Z,14560.00
2023-05-14T12:09:52.196Z,13968.00
2023-05-14T12:10:52.119Z,13312.00
2023-05-14T12:11:52.050Z,12984.00
2023-05-14T12:12:51.973Z,12944.00
2023-05-14T12:13:51.896Z,13364.00
2023-05-14T12:14:51.827Z,13876.00
2023-05-14T12:15:51.808Z,14276.00
2023-05-14T12:16:51.672Z,14864.00
2023-05-14T12:17:51.658Z,15528.00
2023-05-14T12:18:51.572Z,15576.00
2023-05-14T12:19:51.462Z,15856.00
2023-05-14T12:20:51.378Z,16296.00
2023-05-14T12:21:51.313Z,15936.00
2023-05-14T12:22:51.230Z,15528.00